sensor_id;sensor_type;location;lat;lon;timestamp;P1;durP1;ratioP1;P2;durP2;ratioP2
60416;SDS011;46263;44.726;10.396;2024-03-08T00:01:47;2.58;;;2.13;;
60416;SDS011;46263;44.726;10.396;2024-03-08T00:04:13;1.80;;;1.70;;
60416;SDS011;46263;44.726;10.396;2024-03-08T00:06:40;2.53;;;2.00;;
60416;SDS011;46263;44.726;10.396;2024-03-08T00:09:05;1.63;;;1.50;;
60416;SDS011;46263;44.726;10.396;2024-03-08T00:11:33;2.58;;;1.63;;
60416;SDS011;46263;44.726;10.396;2024-03-08T00:14:00;4.15;;;1.92;;
60416;SDS011;46263;44.726;10.396;2024-03-08T00:16:25;2.83;;;2.28;;
60416;SDS011;46263;44.726;10.396;2024-03-08T00:18:51;2.10;;;1.90;;
60416;SDS011;46263;44.726;10.396;2024-03-08T00:21:16;2.38;;;1.80;;
60416;SDS011;46263;44.726;10.396;2024-03-08T00:23:42;5.00;;;2.10;;
60416;SDS011;46263;44.726;10.396;2024-03-08T00:26:07;2.75;;;1.83;;
60416;SDS011;46263;44.726;10.396;2024-03-08T00:28:33;2.67;;;1.85;;
60416;SDS011;46263;44.726;10.396;2024-03-08T00:30:59;3.83;;;1.77;;
60416;SDS011;46263;44.726;10.396;2024-03-08T00:33:25;2.97;;;1.85;;
60416;SDS011;46263;44.726;10.396;2024-03-08T00:35:52;2.45;;;1.65;;
60416;SDS011;46263;44.726;10.396;2024-03-08T00:38:18;1.58;;;1.42;;
60416;SDS011;46263;44.726;10.396;2024-03-08T00:40:44;1.60;;;1.50;;
60416;SDS011;46263;44.726;10.396;2024-03-08T00:43:09;3.20;;;1.55;;
60416;SDS011;46263;44.726;10.396;2024-03-08T00:45:35;2.50;;;1.73;;
60416;SDS011;46263;44.726;10.396;2024-03-08T00:48:02;2.97;;;1.83;;
60416;SDS011;46263;44.726;10.396;2024-03-08T00:50:28;1.60;;;1.50;;
60416;SDS011;46263;44.726;10.396;2024-03-08T00:52:54;2.28;;;1.60;;
60416;SDS011;46263;44.726;10.396;2024-03-08T00:55:19;4.05;;;2.00;;
60416;SDS011;46263;44.726;10.396;2024-03-08T00:57:45;3.97;;;1.65;;
60416;SDS011;46263;44.726;10.396;2024-03-08T01:00:10;2.88;;;1.88;;
60416;SDS011;46263;44.726;10.396;2024-03-08T01:02:40;3.72;;;1.73;;
60416;SDS011;46263;44.726;10.396;2024-03-08T01:05:06;1.58;;;1.48;;
60416;SDS011;46263;44.726;10.396;2024-03-08T01:07:34;1.70;;;1.60;;
60416;SDS011;46263;44.726;10.396;2024-03-08T01:10:00;3.67;;;1.77;;
60416;SDS011;46263;44.726;10.396;2024-03-08T01:12:27;2.10;;;1.90;;
60416;SDS011;46263;44.726;10.396;2024-03-08T01:14:53;2.35;;;1.95;;
60416;SDS011;46263;44.726;10.396;2024-03-08T01:17:18;2.35;;;2.03;;
60416;SDS011;46263;44.726;10.396;2024-03-08T01:19:44;3.83;;;2.30;;
60416;SDS011;46263;44.726;10.396;2024-03-08T01:22:10;3.28;;;2.28;;
60416;SDS011;46263;44.726;10.396;2024-03-08T01:24:36;4.38;;;2.08;;
60416;SDS011;46263;44.726;10.396;2024-03-08T01:27:02;3.42;;;2.55;;
60416;SDS011;46263;44.726;10.396;2024-03-08T01:29:28;3.47;;;2.30;;
60416;SDS011;46263;44.726;10.396;2024-03-08T01:31:54;2.65;;;2.45;;
60416;SDS011;46263;44.726;10.396;2024-03-08T01:34:21;3.85;;;2.55;;
60416;SDS011;46263;44.726;10.396;2024-03-08T01:36:48;2.75;;;2.40;;
60416;SDS011;46263;44.726;10.396;2024-03-08T01:39:13;2.60;;;2.03;;
60416;SDS011;46263;44.726;10.396;2024-03-08T01:41:39;3.63;;;2.05;;
60416;SDS011;46263;44.726;10.396;2024-03-08T01:44:05;2.83;;;2.42;;
60416;SDS011;46263;44.726;10.396;2024-03-08T01:46:32;3.58;;;2.47;;
60416;SDS011;46263;44.726;10.396;2024-03-08T01:48:59;4.90;;;3.00;;
60416;SDS011;46263;44.726;10.396;2024-03-08T01:51:26;2.83;;;2.58;;
60416;SDS011;46263;44.726;10.396;2024-03-08T01:53:53;4.45;;;2.42;;
60416;SDS011;46263;44.726;10.396;2024-03-08T01:56:20;4.53;;;2.83;;
60416;SDS011;46263;44.726;10.396;2024-03-08T01:58:46;7.40;;;3.40;;
60416;SDS011;46263;44.726;10.396;2024-03-08T02:01:12;9.00;;;3.50;;
60416;SDS011;46263;44.726;10.396;2024-03-08T02:03:40;6.32;;;4.18;;
60416;SDS011;46263;44.726;10.396;2024-03-08T02:06:05;8.10;;;4.40;;
60416;SDS011;46263;44.726;10.396;2024-03-08T02:08:35;10.02;;;5.00;;
60416;SDS011;46263;44.726;10.396;2024-03-08T02:11:01;8.07;;;5.28;;
60416;SDS011;46263;44.726;10.396;2024-03-08T02:13:27;11.35;;;6.13;;
60416;SDS011;46263;44.726;10.396;2024-03-08T02:18:20;10.55;;;5.82;;
60416;SDS011;46263;44.726;10.396;2024-03-08T02:20:50;11.57;;;6.20;;
60416;SDS011;46263;44.726;10.396;2024-03-08T02:23:17;12.50;;;6.40;;
60416;SDS011;46263;44.726;10.396;2024-03-08T02:25:43;12.88;;;6.82;;
60416;SDS011;46263;44.726;10.396;2024-03-08T02:28:10;11.43;;;7.07;;
60416;SDS011;46263;44.726;10.396;2024-03-08T02:30:36;14.10;;;7.72;;
60416;SDS011;46263;44.726;10.396;2024-03-08T02:33:02;15.75;;;7.88;;
60416;SDS011;46263;44.726;10.396;2024-03-08T02:35:27;15.95;;;8.15;;
60416;SDS011;46263;44.726;10.396;2024-03-08T02:37:53;14.15;;;7.65;;
60416;SDS011;46263;44.726;10.396;2024-03-08T02:40:18;15.65;;;7.90;;
60416;SDS011;46263;44.726;10.396;2024-03-08T02:42:44;15.98;;;7.78;;
60416;SDS011;46263;44.726;10.396;2024-03-08T02:45:09;16.77;;;7.53;;
60416;SDS011;46263;44.726;10.396;2024-03-08T02:47:38;13.77;;;7.40;;
60416;SDS011;46263;44.726;10.396;2024-03-08T02:50:04;13.48;;;7.57;;
60416;SDS011;46263;44.726;10.396;2024-03-08T02:52:33;15.15;;;7.25;;
60416;SDS011;46263;44.726;10.396;2024-03-08T02:54:59;13.63;;;7.53;;
60416;SDS011;46263;44.726;10.396;2024-03-08T02:57:24;13.55;;;7.85;;
60416;SDS011;46263;44.726;10.396;2024-03-08T02:59:50;13.65;;;6.90;;
60416;SDS011;46263;44.726;10.396;2024-03-08T03:02:15;13.68;;;6.50;;
60416;SDS011;46263;44.726;10.396;2024-03-08T03:04:41;10.90;;;5.78;;
60416;SDS011;46263;44.726;10.396;2024-03-08T03:07:08;5.07;;;3.47;;
60416;SDS011;46263;44.726;10.396;2024-03-08T03:09:33;5.50;;;3.03;;
60416;SDS011;46263;44.726;10.396;2024-03-08T03:11:59;4.53;;;3.35;;
60416;SDS011;46263;44.726;10.396;2024-03-08T03:14:24;5.13;;;2.88;;
60416;SDS011;46263;44.726;10.396;2024-03-08T03:16:52;9.50;;;2.83;;
60416;SDS011;46263;44.726;10.396;2024-03-08T03:19:18;3.22;;;2.45;;
60416;SDS011;46263;44.726;10.396;2024-03-08T03:21:43;2.65;;;2.42;;
60416;SDS011;46263;44.726;10.396;2024-03-08T03:24:09;3.55;;;2.00;;
60416;SDS011;46263;44.726;10.396;2024-03-08T03:26:38;2.10;;;1.83;;
60416;SDS011;46263;44.726;10.396;2024-03-08T03:29:07;2.72;;;2.05;;
60416;SDS011;46263;44.726;10.396;2024-03-08T03:31:33;2.42;;;1.95;;
60416;SDS011;46263;44.726;10.396;2024-03-08T03:33:59;5.32;;;2.13;;
60416;SDS011;46263;44.726;10.396;2024-03-08T03:36:28;4.18;;;2.15;;
60416;SDS011;46263;44.726;10.396;2024-03-08T03:38:54;2.80;;;2.20;;
60416;SDS011;46263;44.726;10.396;2024-03-08T03:41:36;3.45;;;2.22;;
60416;SDS011;46263;44.726;10.396;2024-03-08T03:44:02;4.68;;;2.63;;
60416;SDS011;46263;44.726;10.396;2024-03-08T03:46:27;7.38;;;2.50;;
60416;SDS011;46263;44.726;10.396;2024-03-08T03:48:56;5.22;;;2.88;;
60416;SDS011;46263;44.726;10.396;2024-03-08T03:51:21;5.03;;;3.88;;
60416;SDS011;46263;44.726;10.396;2024-03-08T03:53:47;7.07;;;3.83;;
60416;SDS011;46263;44.726;10.396;2024-03-08T03:56:12;7.93;;;4.85;;
60416;SDS011;46263;44.726;10.396;2024-03-08T03:58:38;11.75;;;5.10;;
60416;SDS011;46263;44.726;10.396;2024-03-08T04:01:04;9.15;;;5.07;;
60416;SDS011;46263;44.726;10.396;2024-03-08T04:03:30;12.35;;;5.22;;
60416;SDS011;46263;44.726;10.396;2024-03-08T04:05:56;12.15;;;6.70;;
60416;SDS011;46263;44.726;10.396;2024-03-08T04:08:22;16.77;;;8.13;;
60416;SDS011;46263;44.726;10.396;2024-03-08T04:10:49;17.98;;;7.45;;
60416;SDS011;46263;44.726;10.396;2024-03-08T04:13:14;17.17;;;7.45;;
60416;SDS011;46263;44.726;10.396;2024-03-08T04:15:41;19.48;;;8.10;;
60416;SDS011;46263;44.726;10.396;2024-03-08T04:18:09;15.40;;;7.28;;
60416;SDS011;46263;44.726;10.396;2024-03-08T04:20:34;12.82;;;7.00;;
60416;SDS011;46263;44.726;10.396;2024-03-08T04:23:00;14.18;;;5.88;;
60416;SDS011;46263;44.726;10.396;2024-03-08T04:25:25;12.38;;;6.15;;
60416;SDS011;46263;44.726;10.396;2024-03-08T04:27:52;10.13;;;4.18;;
60416;SDS011;46263;44.726;10.396;2024-03-08T04:30:17;6.53;;;3.53;;
60416;SDS011;46263;44.726;10.396;2024-03-08T04:32:43;6.85;;;4.10;;
60416;SDS011;46263;44.726;10.396;2024-03-08T04:35:09;9.02;;;4.93;;
60416;SDS011;46263;44.726;10.396;2024-03-08T04:37:34;10.45;;;4.72;;
60416;SDS011;46263;44.726;10.396;2024-03-08T04:40:00;12.68;;;4.93;;
60416;SDS011;46263;44.726;10.396;2024-03-08T04:42:28;10.60;;;5.82;;
60416;SDS011;46263;44.726;10.396;2024-03-08T04:44:57;12.13;;;5.28;;
60416;SDS011;46263;44.726;10.396;2024-03-08T04:47:23;11.68;;;6.07;;
60416;SDS011;46263;44.726;10.396;2024-03-08T04:49:48;12.55;;;5.80;;
60416;SDS011;46263;44.726;10.396;2024-03-08T04:52:15;13.80;;;7.57;;
60416;SDS011;46263;44.726;10.396;2024-03-08T04:54:41;18.05;;;7.85;;
60416;SDS011;46263;44.726;10.396;2024-03-08T04:57:07;19.02;;;9.15;;
60416;SDS011;46263;44.726;10.396;2024-03-08T04:59:33;17.58;;;8.68;;
60416;SDS011;46263;44.726;10.396;2024-03-08T05:01:58;13.75;;;7.55;;
60416;SDS011;46263;44.726;10.396;2024-03-08T05:04:24;9.40;;;5.30;;
60416;SDS011;46263;44.726;10.396;2024-03-08T05:06:50;5.60;;;3.10;;
60416;SDS011;46263;44.726;10.396;2024-03-08T05:09:15;7.35;;;2.70;;
60416;SDS011;46263;44.726;10.396;2024-03-08T05:11:44;5.78;;;2.55;;
60416;SDS011;46263;44.726;10.396;2024-03-08T05:14:10;2.63;;;2.05;;
60416;SDS011;46263;44.726;10.396;2024-03-08T05:16:41;2.10;;;1.90;;
60416;SDS011;46263;44.726;10.396;2024-03-08T05:19:16;3.53;;;2.08;;
60416;SDS011;46263;44.726;10.396;2024-03-08T05:21:48;5.13;;;1.88;;
60416;SDS011;46263;44.726;10.396;2024-03-08T05:24:15;3.25;;;2.25;;
60416;SDS011;46263;44.726;10.396;2024-03-08T05:26:41;8.85;;;2.15;;
60416;SDS011;46263;44.726;10.396;2024-03-08T05:29:07;4.80;;;2.10;;
60416;SDS011;46263;44.726;10.396;2024-03-08T05:31:47;3.10;;;2.05;;
60416;SDS011;46263;44.726;10.396;2024-03-08T05:34:14;2.70;;;1.80;;
60416;SDS011;46263;44.726;10.396;2024-03-08T05:36:41;2.45;;;1.88;;
60416;SDS011;46263;44.726;10.396;2024-03-08T05:39:11;2.58;;;1.95;;
60416;SDS011;46263;44.726;10.396;2024-03-08T05:41:41;3.03;;;2.28;;
60416;SDS011;46263;44.726;10.396;2024-03-08T05:44:07;5.05;;;2.70;;
60416;SDS011;46263;44.726;10.396;2024-03-08T05:46:33;3.05;;;2.22;;
60416;SDS011;46263;44.726;10.396;2024-03-08T05:49:01;4.15;;;2.05;;
60416;SDS011;46263;44.726;10.396;2024-03-08T05:51:34;3.85;;;2.20;;
60416;SDS011;46263;44.726;10.396;2024-03-08T05:54:03;3.70;;;2.00;;
60416;SDS011;46263;44.726;10.396;2024-03-08T05:56:35;2.65;;;2.00;;
60416;SDS011;46263;44.726;10.396;2024-03-08T05:59:02;2.45;;;2.15;;
60416;SDS011;46263;44.726;10.396;2024-03-08T06:01:27;6.60;;;3.17;;
60416;SDS011;46263;44.726;10.396;2024-03-08T06:03:54;9.98;;;3.38;;
60416;SDS011;46263;44.726;10.396;2024-03-08T06:06:25;6.35;;;2.85;;
60416;SDS011;46263;44.726;10.396;2024-03-08T06:08:51;6.30;;;3.78;;
60416;SDS011;46263;44.726;10.396;2024-03-08T06:11:18;7.78;;;3.50;;
60416;SDS011;46263;44.726;10.396;2024-03-08T06:13:45;4.35;;;3.17;;
60416;SDS011;46263;44.726;10.396;2024-03-08T06:16:11;4.28;;;2.95;;
60416;SDS011;46263;44.726;10.396;2024-03-08T06:18:37;6.00;;;3.67;;
60416;SDS011;46263;44.726;10.396;2024-03-08T06:21:03;9.20;;;4.85;;
60416;SDS011;46263;44.726;10.396;2024-03-08T06:23:32;5.90;;;3.75;;
60416;SDS011;46263;44.726;10.396;2024-03-08T06:25:58;13.80;;;5.28;;
60416;SDS011;46263;44.726;10.396;2024-03-08T06:28:24;12.43;;;5.45;;
60416;SDS011;46263;44.726;10.396;2024-03-08T06:30:49;10.25;;;5.22;;
60416;SDS011;46263;44.726;10.396;2024-03-08T06:33:16;14.10;;;6.32;;
60416;SDS011;46263;44.726;10.396;2024-03-08T06:35:42;17.90;;;6.63;;
60416;SDS011;46263;44.726;10.396;2024-03-08T06:38:07;15.38;;;6.20;;
60416;SDS011;46263;44.726;10.396;2024-03-08T06:40:33;22.38;;;7.50;;
60416;SDS011;46263;44.726;10.396;2024-03-08T06:42:58;17.08;;;7.38;;
60416;SDS011;46263;44.726;10.396;2024-03-08T06:45:24;26.85;;;8.00;;
60416;SDS011;46263;44.726;10.396;2024-03-08T06:47:51;16.70;;;8.27;;
60416;SDS011;46263;44.726;10.396;2024-03-08T06:50:17;20.70;;;8.85;;
60416;SDS011;46263;44.726;10.396;2024-03-08T06:52:42;21.58;;;8.80;;
60416;SDS011;46263;44.726;10.396;2024-03-08T06:55:09;20.67;;;8.10;;
60416;SDS011;46263;44.726;10.396;2024-03-08T06:57:38;25.30;;;9.52;;
60416;SDS011;46263;44.726;10.396;2024-03-08T07:00:06;22.48;;;8.98;;
60416;SDS011;46263;44.726;10.396;2024-03-08T07:02:34;25.13;;;9.75;;
60416;SDS011;46263;44.726;10.396;2024-03-08T07:05:00;20.75;;;8.73;;
60416;SDS011;46263;44.726;10.396;2024-03-08T07:07:26;20.55;;;8.57;;
60416;SDS011;46263;44.726;10.396;2024-03-08T07:09:52;19.67;;;9.43;;
60416;SDS011;46263;44.726;10.396;2024-03-08T07:12:17;23.58;;;9.63;;
60416;SDS011;46263;44.726;10.396;2024-03-08T07:14:43;21.55;;;9.68;;
60416;SDS011;46263;44.726;10.396;2024-03-08T07:17:10;24.58;;;10.38;;
60416;SDS011;46263;44.726;10.396;2024-03-08T07:19:36;25.65;;;9.60;;
60416;SDS011;46263;44.726;10.396;2024-03-08T07:22:03;22.02;;;9.68;;
60416;SDS011;46263;44.726;10.396;2024-03-08T07:24:30;21.15;;;9.00;;
60416;SDS011;46263;44.726;10.396;2024-03-08T07:27:20;18.00;;;8.68;;
60416;SDS011;46263;44.726;10.396;2024-03-08T07:29:46;15.40;;;8.43;;
60416;SDS011;46263;44.726;10.396;2024-03-08T07:32:11;25.83;;;9.45;;
60416;SDS011;46263;44.726;10.396;2024-03-08T07:34:46;19.30;;;8.63;;
60416;SDS011;46263;44.726;10.396;2024-03-08T07:37:15;17.85;;;8.27;;
60416;SDS011;46263;44.726;10.396;2024-03-08T07:39:41;18.42;;;8.27;;
60416;SDS011;46263;44.726;10.396;2024-03-08T07:42:08;27.58;;;9.20;;
60416;SDS011;46263;44.726;10.396;2024-03-08T07:44:33;21.15;;;9.38;;
60416;SDS011;46263;44.726;10.396;2024-03-08T07:46:59;21.42;;;9.77;;
60416;SDS011;46263;44.726;10.396;2024-03-08T07:49:24;18.90;;;9.95;;
60416;SDS011;46263;44.726;10.396;2024-03-08T07:51:50;21.17;;;10.00;;
60416;SDS011;46263;44.726;10.396;2024-03-08T07:54:17;24.55;;;11.13;;
60416;SDS011;46263;44.726;10.396;2024-03-08T07:56:42;22.55;;;10.45;;
60416;SDS011;46263;44.726;10.396;2024-03-08T07:59:08;17.83;;;9.05;;
60416;SDS011;46263;44.726;10.396;2024-03-08T08:01:33;21.25;;;9.43;;
60416;SDS011;46263;44.726;10.396;2024-03-08T08:03:59;22.38;;;11.20;;
60416;SDS011;46263;44.726;10.396;2024-03-08T08:06:26;23.13;;;11.13;;
60416;SDS011;46263;44.726;10.396;2024-03-08T08:08:52;25.08;;;10.82;;
60416;SDS011;46263;44.726;10.396;2024-03-08T08:11:18;26.48;;;11.15;;
60416;SDS011;46263;44.726;10.396;2024-03-08T08:13:45;26.02;;;11.00;;
60416;SDS011;46263;44.726;10.396;2024-03-08T08:16:11;26.23;;;11.40;;
60416;SDS011;46263;44.726;10.396;2024-03-08T08:18:38;23.17;;;11.07;;
60416;SDS011;46263;44.726;10.396;2024-03-08T08:21:04;27.23;;;11.77;;
60416;SDS011;46263;44.726;10.396;2024-03-08T08:23:31;22.80;;;11.07;;
60416;SDS011;46263;44.726;10.396;2024-03-08T08:25:57;21.90;;;11.82;;
60416;SDS011;46263;44.726;10.396;2024-03-08T08:28:23;19.92;;;10.50;;
60416;SDS011;46263;44.726;10.396;2024-03-08T08:30:49;24.92;;;10.88;;
60416;SDS011;46263;44.726;10.396;2024-03-08T08:33:15;25.02;;;11.75;;
60416;SDS011;46263;44.726;10.396;2024-03-08T08:35:41;28.13;;;12.95;;
60416;SDS011;46263;44.726;10.396;2024-03-08T08:38:07;26.90;;;11.98;;
60416;SDS011;46263;44.726;10.396;2024-03-08T08:40:34;29.70;;;12.35;;
60416;SDS011;46263;44.726;10.396;2024-03-08T08:43:01;23.90;;;11.63;;
60416;SDS011;46263;44.726;10.396;2024-03-08T08:45:29;22.48;;;11.60;;
60416;SDS011;46263;44.726;10.396;2024-03-08T08:47:55;27.75;;;12.32;;
60416;SDS011;46263;44.726;10.396;2024-03-08T08:50:21;23.40;;;10.50;;
60416;SDS011;46263;44.726;10.396;2024-03-08T08:52:50;26.92;;;12.63;;
60416;SDS011;46263;44.726;10.396;2024-03-08T08:55:16;26.60;;;11.93;;
60416;SDS011;46263;44.726;10.396;2024-03-08T08:57:46;29.58;;;12.63;;
60416;SDS011;46263;44.726;10.396;2024-03-08T09:00:12;25.75;;;12.13;;
60416;SDS011;46263;44.726;10.396;2024-03-08T09:02:43;24.45;;;12.15;;
60416;SDS011;46263;44.726;10.396;2024-03-08T09:05:08;25.65;;;12.32;;
60416;SDS011;46263;44.726;10.396;2024-03-08T09:07:34;29.90;;;12.02;;
60416;SDS011;46263;44.726;10.396;2024-03-08T09:09:59;29.23;;;11.73;;
60416;SDS011;46263;44.726;10.396;2024-03-08T09:12:25;29.63;;;12.27;;
60416;SDS011;46263;44.726;10.396;2024-03-08T09:14:51;26.88;;;12.52;;
60416;SDS011;46263;44.726;10.396;2024-03-08T09:17:17;24.75;;;12.35;;
60416;SDS011;46263;44.726;10.396;2024-03-08T09:19:46;26.75;;;12.45;;
60416;SDS011;46263;44.726;10.396;2024-03-08T09:22:12;23.08;;;12.07;;
60416;SDS011;46263;44.726;10.396;2024-03-08T09:24:38;22.25;;;11.85;;
60416;SDS011;46263;44.726;10.396;2024-03-08T09:27:04;23.67;;;11.15;;
60416;SDS011;46263;44.726;10.396;2024-03-08T09:29:30;26.33;;;13.18;;
60416;SDS011;46263;44.726;10.396;2024-03-08T09:31:55;23.17;;;12.20;;
60416;SDS011;46263;44.726;10.396;2024-03-08T09:34:21;23.85;;;11.80;;
60416;SDS011;46263;44.726;10.396;2024-03-08T09:36:46;28.25;;;12.10;;
60416;SDS011;46263;44.726;10.396;2024-03-08T09:39:12;27.23;;;13.13;;
60416;SDS011;46263;44.726;10.396;2024-03-08T09:41:44;31.38;;;13.02;;
60416;SDS011;46263;44.726;10.396;2024-03-08T09:44:13;28.80;;;11.68;;
60416;SDS011;46263;44.726;10.396;2024-03-08T09:46:39;25.83;;;12.77;;
60416;SDS011;46263;44.726;10.396;2024-03-08T09:49:06;27.73;;;12.15;;
60416;SDS011;46263;44.726;10.396;2024-03-08T09:51:33;22.20;;;11.88;;
60416;SDS011;46263;44.726;10.396;2024-03-08T09:54:03;24.42;;;13.38;;
60416;SDS011;46263;44.726;10.396;2024-03-08T09:56:31;19.60;;;10.05;;
60416;SDS011;46263;44.726;10.396;2024-03-08T09:58:59;25.30;;;11.77;;
60416;SDS011;46263;44.726;10.396;2024-03-08T10:01:36;23.50;;;12.65;;
60416;SDS011;46263;44.726;10.396;2024-03-08T10:04:03;20.42;;;11.48;;
60416;SDS011;46263;44.726;10.396;2024-03-08T10:06:29;26.23;;;12.32;;
60416;SDS011;46263;44.726;10.396;2024-03-08T10:08:55;23.13;;;12.25;;
60416;SDS011;46263;44.726;10.396;2024-03-08T10:11:21;32.28;;;13.40;;
60416;SDS011;46263;44.726;10.396;2024-03-08T10:13:47;25.55;;;12.30;;
60416;SDS011;46263;44.726;10.396;2024-03-08T10:16:13;28.05;;;14.05;;
60416;SDS011;46263;44.726;10.396;2024-03-08T10:18:39;29.02;;;12.38;;
60416;SDS011;46263;44.726;10.396;2024-03-08T10:21:06;27.98;;;12.30;;
60416;SDS011;46263;44.726;10.396;2024-03-08T10:23:35;22.90;;;11.63;;
60416;SDS011;46263;44.726;10.396;2024-03-08T10:28:40;18.50;;;10.32;;
60416;SDS011;46263;44.726;10.396;2024-03-08T10:31:15;22.50;;;11.75;;
60416;SDS011;46263;44.726;10.396;2024-03-08T10:33:41;21.63;;;11.77;;
60416;SDS011;46263;44.726;10.396;2024-03-08T10:36:10;20.92;;;11.55;;
60416;SDS011;46263;44.726;10.396;2024-03-08T10:38:38;19.88;;;9.98;;
60416;SDS011;46263;44.726;10.396;2024-03-08T10:41:09;18.55;;;9.43;;
60416;SDS011;46263;44.726;10.396;2024-03-08T10:43:46;17.65;;;9.82;;
60416;SDS011;46263;44.726;10.396;2024-03-08T10:49:54;15.50;;;9.23;;
60416;SDS011;46263;44.726;10.396;2024-03-08T10:52:29;21.08;;;11.25;;
60416;SDS011;46263;44.726;10.396;2024-03-08T10:54:54;19.77;;;10.95;;
60416;SDS011;46263;44.726;10.396;2024-03-08T10:57:21;20.15;;;10.80;;
60416;SDS011;46263;44.726;10.396;2024-03-08T10:59:49;26.23;;;10.93;;
60416;SDS011;46263;44.726;10.396;2024-03-08T11:02:16;19.85;;;10.57;;
60416;SDS011;46263;44.726;10.396;2024-03-08T11:04:46;19.42;;;10.55;;
60416;SDS011;46263;44.726;10.396;2024-03-08T11:07:14;20.85;;;11.23;;
60416;SDS011;46263;44.726;10.396;2024-03-08T11:09:43;21.70;;;10.85;;
60416;SDS011;46263;44.726;10.396;2024-03-08T11:12:20;21.27;;;12.25;;
60416;SDS011;46263;44.726;10.396;2024-03-08T11:14:50;20.30;;;10.93;;
60416;SDS011;46263;44.726;10.396;2024-03-08T11:17:21;19.23;;;10.55;;
60416;SDS011;46263;44.726;10.396;2024-03-08T11:19:51;21.70;;;10.13;;
60416;SDS011;46263;44.726;10.396;2024-03-08T11:22:32;20.38;;;10.40;;
60416;SDS011;46263;44.726;10.396;2024-03-08T11:24:59;17.75;;;10.77;;
60416;SDS011;46263;44.726;10.396;2024-03-08T11:27:30;19.23;;;9.82;;
60416;SDS011;46263;44.726;10.396;2024-03-08T11:29:59;15.75;;;9.35;;
60416;SDS011;46263;44.726;10.396;2024-03-08T11:32:35;19.13;;;10.50;;
60416;SDS011;46263;44.726;10.396;2024-03-08T11:35:02;17.40;;;9.40;;
60416;SDS011;46263;44.726;10.396;2024-03-08T11:37:33;16.08;;;8.55;;
60416;SDS011;46263;44.726;10.396;2024-03-08T11:40:02;16.42;;;9.10;;
60416;SDS011;46263;44.726;10.396;2024-03-08T11:42:39;19.45;;;9.00;;
60416;SDS011;46263;44.726;10.396;2024-03-08T11:45:09;15.95;;;8.68;;
60416;SDS011;46263;44.726;10.396;2024-03-08T11:47:36;14.88;;;8.30;;
60416;SDS011;46263;44.726;10.396;2024-03-08T11:50:05;14.85;;;8.60;;
60416;SDS011;46263;44.726;10.396;2024-03-08T11:52:36;12.80;;;7.45;;
60416;SDS011;46263;44.726;10.396;2024-03-08T11:55:02;13.30;;;8.07;;
60416;SDS011;46263;44.726;10.396;2024-03-08T11:57:28;12.77;;;7.63;;
60416;SDS011;46263;44.726;10.396;2024-03-08T11:59:55;15.68;;;8.30;;
60416;SDS011;46263;44.726;10.396;2024-03-08T12:02:31;12.90;;;8.27;;
60416;SDS011;46263;44.726;10.396;2024-03-08T12:04:57;11.85;;;7.25;;
60416;SDS011;46263;44.726;10.396;2024-03-08T12:07:25;12.48;;;7.53;;
60416;SDS011;46263;44.726;10.396;2024-03-08T12:12:46;10.95;;;7.07;;
60416;SDS011;46263;44.726;10.396;2024-03-08T12:15:17;11.65;;;7.18;;
60416;SDS011;46263;44.726;10.396;2024-03-08T12:17:48;11.98;;;7.28;;
60416;SDS011;46263;44.726;10.396;2024-03-08T12:20:16;10.57;;;7.18;;
60416;SDS011;46263;44.726;10.396;2024-03-08T12:22:43;12.10;;;8.18;;
60416;SDS011;46263;44.726;10.396;2024-03-08T12:25:10;10.55;;;7.38;;
60416;SDS011;46263;44.726;10.396;2024-03-08T12:27:40;12.68;;;7.35;;
60416;SDS011;46263;44.726;10.396;2024-03-08T12:32:54;9.45;;;6.57;;
60416;SDS011;46263;44.726;10.396;2024-03-08T12:35:23;14.50;;;7.20;;
60416;SDS011;46263;44.726;10.396;2024-03-08T12:37:51;10.60;;;6.90;;
60416;SDS011;46263;44.726;10.396;2024-03-08T12:40:18;11.10;;;6.85;;
60416;SDS011;46263;44.726;10.396;2024-03-08T12:42:45;11.00;;;7.55;;
60416;SDS011;46263;44.726;10.396;2024-03-08T12:45:13;10.73;;;7.13;;
60416;SDS011;46263;44.726;10.396;2024-03-08T12:47:39;13.00;;;7.07;;
60416;SDS011;46263;44.726;10.396;2024-03-08T12:50:07;11.45;;;6.88;;
60416;SDS011;46263;44.726;10.396;2024-03-08T12:52:34;13.18;;;7.90;;
60416;SDS011;46263;44.726;10.396;2024-03-08T12:55:00;10.13;;;6.30;;
60416;SDS011;46263;44.726;10.396;2024-03-08T12:57:28;9.30;;;6.70;;
60416;SDS011;46263;44.726;10.396;2024-03-08T12:59:54;7.88;;;5.95;;
60416;SDS011;46263;44.726;10.396;2024-03-08T13:02:19;7.22;;;5.57;;
60416;SDS011;46263;44.726;10.396;2024-03-08T13:04:46;12.57;;;7.18;;
60416;SDS011;46263;44.726;10.396;2024-03-08T13:07:20;12.13;;;5.95;;
60416;SDS011;46263;44.726;10.396;2024-03-08T13:09:46;9.63;;;6.25;;
60416;SDS011;46263;44.726;10.396;2024-03-08T13:12:12;8.35;;;5.75;;
60416;SDS011;46263;44.726;10.396;2024-03-08T13:14:40;10.30;;;6.43;;
60416;SDS011;46263;44.726;10.396;2024-03-08T13:17:06;9.23;;;6.07;;
60416;SDS011;46263;44.726;10.396;2024-03-08T13:19:35;10.25;;;6.43;;
60416;SDS011;46263;44.726;10.396;2024-03-08T13:22:01;11.10;;;5.68;;
60416;SDS011;46263;44.726;10.396;2024-03-08T13:24:29;9.52;;;6.32;;
60416;SDS011;46263;44.726;10.396;2024-03-08T13:26:55;9.23;;;5.72;;
60416;SDS011;46263;44.726;10.396;2024-03-08T13:29:21;11.75;;;5.65;;
60416;SDS011;46263;44.726;10.396;2024-03-08T13:31:47;9.45;;;6.38;;
60416;SDS011;46263;44.726;10.396;2024-03-08T13:34:16;6.97;;;5.53;;
60416;SDS011;46263;44.726;10.396;2024-03-08T13:36:52;11.10;;;6.05;;
60416;SDS011;46263;44.726;10.396;2024-03-08T13:39:19;13.90;;;6.47;;
60416;SDS011;46263;44.726;10.396;2024-03-08T13:41:46;10.07;;;5.80;;
60416;SDS011;46263;44.726;10.396;2024-03-08T13:44:11;10.98;;;6.72;;
60416;SDS011;46263;44.726;10.396;2024-03-08T13:46:37;7.13;;;5.53;;
60416;SDS011;46263;44.726;10.396;2024-03-08T13:49:04;8.52;;;5.55;;
60416;SDS011;46263;44.726;10.396;2024-03-08T13:51:36;13.23;;;6.30;;
60416;SDS011;46263;44.726;10.396;2024-03-08T13:54:01;8.68;;;5.80;;
60416;SDS011;46263;44.726;10.396;2024-03-08T13:56:27;10.18;;;6.00;;
60416;SDS011;46263;44.726;10.396;2024-03-08T13:58:56;10.65;;;6.57;;
60416;SDS011;46263;44.726;10.396;2024-03-08T14:01:22;12.77;;;6.00;;
60416;SDS011;46263;44.726;10.396;2024-03-08T14:03:48;8.95;;;6.05;;
60416;SDS011;46263;44.726;10.396;2024-03-08T14:06:13;10.07;;;6.20;;
60416;SDS011;46263;44.726;10.396;2024-03-08T14:08:39;11.90;;;6.60;;
60416;SDS011;46263;44.726;10.396;2024-03-08T14:11:05;7.93;;;5.28;;
60416;SDS011;46263;44.726;10.396;2024-03-08T14:13:43;13.45;;;7.90;;
60416;SDS011;46263;44.726;10.396;2024-03-08T14:16:12;15.93;;;7.97;;
60416;SDS011;46263;44.726;10.396;2024-03-08T14:18:38;14.65;;;7.65;;
60416;SDS011;46263;44.726;10.396;2024-03-08T14:21:04;11.95;;;6.90;;
60416;SDS011;46263;44.726;10.396;2024-03-08T14:23:30;11.02;;;6.90;;
60416;SDS011;46263;44.726;10.396;2024-03-08T14:25:56;11.18;;;6.95;;
60416;SDS011;46263;44.726;10.396;2024-03-08T14:28:21;9.50;;;6.47;;
60416;SDS011;46263;44.726;10.396;2024-03-08T14:30:48;16.08;;;6.43;;
60416;SDS011;46263;44.726;10.396;2024-03-08T14:33:14;11.45;;;6.53;;
60416;SDS011;46263;44.726;10.396;2024-03-08T14:35:41;9.38;;;6.18;;
60416;SDS011;46263;44.726;10.396;2024-03-08T14:38:08;12.73;;;6.80;;